Time;durP1;ratioP1;P1;durP2;ratioP2;P2;SDS_P1;SDS_P2;PMS_P1;PMS_P2;Temp;Humidity;BMP_temperature;BMP_pressure;BME280_temperature;BME280_humidity;BME280_pressure;Samples;Min_cycle;Max_cycle;Signal;HPM_P1;HPM_P2
2023/08/13 00:00:18;;;;;;;7.40;1.60;;;;;;;17.18;70.03;101670.47;7402511;19;19921;-76
2023/08/13 00:02:49;;;;;;;7.18;1.80;;;;;;;17.19;70.23;101667.56;7402550;19;19998;-76
2023/08/13 00:05:17;;;;;;;4.53;1.50;;;;;;;17.21;69.42;101665.44;7401481;19;20277;-77
2023/08/13 00:07:46;;;;;;;4.88;1.50;;;;;;;17.24;69.49;101664.22;7401931;19;20540;-76
2023/08/13 00:10:15;;;;;;;5.25;1.52;;;;;;;17.23;69.71;101667.97;7402630;19;19936;-77
2023/08/13 00:12:43;;;;;;;5.53;1.60;;;;;;;17.26;69.80;101664.03;7401790;19;19923;-76
2023/08/13 00:15:13;;;;;;;6.22;1.50;;;;;;;17.26;69.78;101656.69;7402162;19;19917;-76
2023/08/13 00:17:41;;;;;;;6.60;1.67;;;;;;;17.23;69.47;101659.81;7401897;19;20017;-77
2023/08/13 00:20:13;;;;;;;5.22;1.52;;;;;;;17.17;69.96;101658.72;7402454;19;19919;-77
2023/08/13 00:22:43;;;;;;;5.95;2.13;;;;;;;17.09;70.60;101667.06;7403150;19;19918;-76
2023/08/13 00:25:11;;;;;;;5.07;1.60;;;;;;;17.05;70.44;101668.50;7403567;19;20344;-76
2023/08/13 00:27:40;;;;;;;10.63;2.28;;;;;;;16.98;70.58;101670.34;7401724;19;20352;-77
2023/08/13 00:30:10;;;;;;;9.48;1.85;;;;;;;16.91;71.19;101668.63;7400351;19;19927;-76
2023/08/13 00:32:38;;;;;;;6.03;1.90;;;;;;;16.86;71.25;101668.38;7401189;19;19940;-76
2023/08/13 00:35:08;;;;;;;5.93;1.70;;;;;;;16.83;71.20;101676.97;7401414;19;19919;-76
2023/08/13 00:37:39;;;;;;;6.25;1.73;;;;;;;16.78;72.30;101669.38;7401805;19;20319;-76
2023/08/13 00:40:10;;;;;;;11.98;1.80;;;;;;;16.75;72.01;101664.31;7401103;19;19918;-76
2023/08/13 00:42:39;;;;;;;11.10;2.35;;;;;;;16.72;71.88;101664.72;7402344;19;19954;-76
2023/08/13 00:45:09;;;;;;;5.00;1.80;;;;;;;16.68;72.15;101667.00;7400900;19;19918;-76
2023/08/13 00:47:38;;;;;;;7.65;1.83;;;;;;;16.64;72.21;101673.88;7401983;19;19918;-75
2023/08/13 00:50:09;;;;;;;5.65;1.75;;;;;;;16.61;72.16;101666.09;7401816;19;20249;-77
2023/08/13 00:52:40;;;;;;;9.88;2.35;;;;;;;16.56;72.94;101665.84;7401468;19;19926;-76
2023/08/13 00:55:10;;;;;;;11.85;1.88;;;;;;;16.54;72.58;101664.34;7401253;19;19910;-76
2023/08/13 00:57:39;;;;;;;7.28;1.88;;;;;;;16.52;72.66;101669.16;7401265;19;19911;-77
2023/08/13 01:00:11;;;;;;;7.30;2.00;;;;;;;16.51;72.95;101667.44;7401262;19;19943;-76
2023/08/13 01:02:40;;;;;;;5.15;1.70;;;;;;;16.49;72.74;101674.94;7401178;19;19914;-77
2023/08/13 01:05:09;;;;;;;7.32;1.85;;;;;;;16.45;73.46;101668.22;7400657;19;20352;-76
2023/08/13 01:07:49;;;;;;;9.30;2.05;;;;;;;16.40;73.53;101670.69;7400733;19;19979;-76
2023/08/13 01:10:25;;;;;;;7.72;1.70;;;;;;;16.38;73.32;101670.06;7400575;19;19940;-76
2023/08/13 01:13:00;;;;;;;6.00;1.80;;;;;;;16.37;73.70;101655.63;7400562;19;19930;-76
2023/08/13 01:15:32;;;;;;;3.55;1.60;;;;;;;16.37;73.38;101646.63;7400578;19;19934;-76
2023/08/13 01:18:02;;;;;;;9.32;2.15;;;;;;;16.39;73.26;101647.28;7400690;19;19941;-77
2023/08/13 01:20:34;;;;;;;7.15;2.22;;;;;;;16.43;73.66;101651.28;7400699;19;19918;-77
2023/08/13 01:23:05;;;;;;;6.57;1.55;;;;;;;16.45;74.08;101654.63;7400584;19;19954;-76
2023/08/13 01:25:35;;;;;;;5.53;1.92;;;;;;;16.47;73.44;101655.28;7403205;19;19929;-76
2023/08/13 01:28:11;;;;;;;3.40;1.20;;;;;;;16.46;73.94;101656.31;7400220;19;19922;-76
2023/08/13 01:30:44;;;;;;;5.43;1.63;;;;;;;16.48;74.21;101665.13;7400104;19;19914;-76
2023/08/13 01:33:19;;;;;;;5.25;1.67;;;;;;;16.47;74.04;101661.56;7399912;19;19914;-76
2023/08/13 01:35:50;;;;;;;9.70;2.20;;;;;;;16.51;73.92;101662.00;7399061;19;19910;-76
2023/08/13 01:38:21;;;;;;;3.85;1.38;;;;;;;16.53;74.09;101663.50;7399480;19;19919;-76
2023/08/13 01:40:51;;;;;;;7.82;1.73;;;;;;;16.55;74.05;101653.25;7398327;19;20356;-76
2023/08/13 01:43:20;;;;;;;6.50;2.00;;;;;;;16.55;73.86;101652.41;7411838;19;19936;-76
2023/08/13 01:45:49;;;;;;;2.88;1.60;;;;;;;16.55;74.12;101658.72;7413393;19;19922;-77
2023/08/13 01:48:17;;;;;;;4.78;1.73;;;;;;;16.56;73.91;101654.09;7413992;19;19918;-77
2023/08/13 01:50:46;;;;;;;7.88;1.70;;;;;;;16.55;73.96;101655.97;7413851;19;19919;-76
2023/08/13 01:53:15;;;;;;;9.05;1.15;;;;;;;16.58;74.36;101657.50;7414584;19;19911;-76
2023/08/13 01:55:46;;;;;;;8.23;1.60;;;;;;;16.59;74.32;101661.91;7413973;19;19915;-76
2023/08/13 01:58:15;;;;;;;9.10;1.90;;;;;;;16.59;74.52;101656.47;7414882;19;19952;-75
2023/08/13 02:00:43;;;;;;;5.63;1.90;;;;;;;16.59;74.82;101664.63;7413807;19;20264;-76
2023/08/13 02:03:12;;;;;;;8.05;1.80;;;;;;;16.59;74.70;101670.06;7413663;19;20009;-77
2023/08/13 02:05:40;;;;;;;10.38;1.85;;;;;;;16.57;74.83;101672.09;7413352;19;19926;-77
2023/08/13 02:08:09;;;;;;;5.35;1.77;;;;;;;16.57;75.09;101661.22;7414050;19;19911;-76
2023/08/13 02:10:38;;;;;;;6.65;2.00;;;;;;;16.55;75.06;101664.16;7413649;19;19935;-76
2023/08/13 02:13:09;;;;;;;8.77;1.95;;;;;;;16.53;75.19;101660.75;7413632;19;19919;-76
2023/08/13 02:15:38;;;;;;;8.95;2.40;;;;;;;16.52;74.96;101660.97;7413178;19;19911;-76
2023/08/13 02:18:07;;;;;;;7.80;1.75;;;;;;;16.51;75.42;101662.00;7413208;19;20359;-75
2023/08/13 02:20:36;;;;;;;9.05;2.00;;;;;;;16.49;75.18;101659.47;7413343;19;20351;-75
2023/08/13 02:23:04;;;;;;;7.63;1.92;;;;;;;16.51;75.23;101670.19;7413024;19;19915;-76
2023/08/13 02:25:33;;;;;;;6.60;1.70;;;;;;;16.51;75.27;101662.00;7416800;19;19914;-75
2023/08/13 02:28:01;;;;;;;7.05;1.98;;;;;;;16.51;75.86;101662.00;7413158;19;19935;-76
2023/08/13 02:30:32;;;;;;;9.00;2.00;;;;;;;16.50;76.13;101665.75;7412194;19;19922;-76
2023/08/13 02:33:01;;;;;;;7.57;2.47;;;;;;;16.47;76.15;101656.13;7412134;19;19928;-75
2023/08/13 02:35:30;;;;;;;6.20;2.25;;;;;;;16.44;76.22;101656.50;7411750;19;20376;-76
2023/08/13 02:37:59;;;;;;;5.75;2.05;;;;;;;16.42;75.88;101653.16;7413394;19;20388;-75
2023/08/13 02:40:28;;;;;;;8.68;2.35;;;;;;;16.42;76.41;101663.19;7410619;19;19966;-76
2023/08/13 02:42:56;;;;;;;8.88;1.83;;;;;;;16.41;76.43;101664.22;7411824;19;19918;-76
2023/08/13 02:45:25;;;;;;;7.53;2.05;;;;;;;16.41;76.59;101659.63;7411981;19;20309;-75
2023/08/13 02:47:56;;;;;;;8.02;2.60;;;;;;;16.41;76.96;101656.91;7409541;19;20332;-75
2023/08/13 02:50:25;;;;;;;6.70;1.90;;;;;;;16.41;76.52;101658.78;7411687;19;20387;-76
2023/08/13 02:52:53;;;;;;;9.27;2.30;;;;;;;16.41;76.41;101656.91;7410851;19;19930;-75
2023/08/13 02:55:22;;;;;;;8.23;1.67;;;;;;;16.42;76.83;101657.75;7403392;19;19922;-75
2023/08/13 02:57:51;;;;;;;9.18;2.25;;;;;;;16.42;77.25;101660.47;7405600;19;20019;-75
2023/08/13 03:00:21;;;;;;;9.82;2.17;;;;;;;16.43;77.42;101664.88;7406141;19;19919;-76
2023/08/13 03:02:49;;;;;;;7.60;2.03;;;;;;;16.42;77.22;101653.16;7406230;19;19914;-76
2023/08/13 03:05:20;;;;;;;8.90;1.70;;;;;;;16.41;77.33;101656.06;7405488;19;19911;-76
2023/08/13 03:07:49;;;;;;;7.18;2.58;;;;;;;16.40;77.33;101646.22;7402244;19;19953;-76
2023/08/13 03:10:18;;;;;;;10.57;2.03;;;;;;;16.37;77.21;101649.31;7403811;19;19927;-76
2023/08/13 03:12:46;;;;;;;9.90;2.05;;;;;;;16.32;77.67;101652.63;7404090;19;19919;-76
2023/08/13 03:15:15;;;;;;;9.55;2.47;;;;;;;16.27;77.52;101649.66;7403426;19;20276;-75
2023/08/13 03:17:44;;;;;;;8.40;1.90;;;;;;;16.21;77.60;101650.44;7403984;19;19950;-76
2023/08/13 03:20:13;;;;;;;11.18;2.03;;;;;;;16.13;77.97;101648.72;7404049;19;19914;-76
2023/08/13 03:22:44;;;;;;;7.40;1.83;;;;;;;16.05;78.50;101643.38;7403565;19;19964;-76
2023/08/13 03:25:12;;;;;;;7.57;2.13;;;;;;;16.00;78.39;101645.03;7406373;19;20311;-76
2023/08/13 03:27:41;;;;;;;7.97;2.17;;;;;;;15.93;78.56;101647.66;7401487;19;19918;-75
2023/08/13 03:30:11;;;;;;;13.40;2.47;;;;;;;15.92;78.91;101642.44;7404089;19;19923;-75
2023/08/13 03:32:39;;;;;;;9.43;1.98;;;;;;;15.88;78.75;101650.09;7404239;19;20268;-75
2023/08/13 03:35:08;;;;;;;6.65;1.70;;;;;;;15.83;79.24;101647.16;7403850;19;19918;-76
2023/08/13 03:37:37;;;;;;;12.07;2.08;;;;;;;15.80;79.20;101642.06;7404352;19;20351;-76
2023/08/13 03:40:10;;;;;;;9.25;2.15;;;;;;;15.77;79.62;101654.19;7402039;19;20296;-76
2023/08/13 03:42:39;;;;;;;9.15;2.15;;;;;;;15.73;79.32;101641.16;7402864;19;19914;-75
2023/08/13 03:45:09;;;;;;;7.45;1.90;;;;;;;15.68;79.81;101646.34;7402593;19;19918;-75
2023/08/13 03:47:39;;;;;;;9.02;2.13;;;;;;;15.66;79.65;101643.78;7401432;19;19939;-76
2023/08/13 03:50:08;;;;;;;6.07;1.90;;;;;;;15.65;80.04;101654.88;7402632;19;20351;-75
2023/08/13 03:52:36;;;;;;;9.65;2.20;;;;;;;15.64;80.38;101656.75;7404110;19;19915;-76
2023/08/13 03:55:06;;;;;;;11.75;2.25;;;;;;;15.63;80.39;101662.34;7402640;19;19918;-76
2023/08/13 03:57:37;;;;;;;9.57;2.35;;;;;;;15.60;80.82;101662.75;7403033;19;19922;-76
2023/08/13 04:00:07;;;;;;;6.38;2.08;;;;;;;15.58;80.46;101660.22;7403061;19;19915;-76
2023/08/13 04:02:35;;;;;;;7.82;2.67;;;;;;;15.58;80.93;101660.22;7403327;19;19953;-76
2023/08/13 04:05:07;;;;;;;5.72;1.80;;;;;;;15.59;81.18;101666.50;7400589;19;19942;-76
2023/08/13 04:07:35;;;;;;;;;;;;;;;15.38;82.88;101668.09;7403993;19;20251;-77
2023/08/13 04:10:04;;;;;;;7.68;2.20;;;;;;;15.51;80.79;101664.72;7403017;19;20277;-77
2023/08/13 04:12:33;;;;;;;7.85;2.30;;;;;;;15.53;80.61;101667.25;7401977;19;19926;-76
2023/08/13 04:15:04;;;;;;;6.53;1.90;;;;;;;15.51;81.33;101663.88;7402487;19;19968;-76
2023/08/13 04:17:33;;;;;;;;;;;;;;;15.31;83.49;101666.31;7404720;19;19928;-76
2023/08/13 04:20:01;;;;;;;13.75;2.50;;;;;;;15.43;81.09;101673.81;7401943;19;19922;-76
2023/08/13 04:22:30;;;;;;;10.90;2.35;;;;;;;15.49;81.16;101671.38;7401803;19;19911;-77
2023/08/13 04:24:59;;;;;;;8.90;2.08;;;;;;;15.51;81.12;101678.31;7405100;19;20551;-76
2023/08/13 04:27:27;;;;;;;10.82;2.15;;;;;;;15.53;80.92;101678.13;7400914;19;19918;-76
2023/08/13 04:29:56;;;;;;;9.07;1.98;;;;;;;15.53;81.08;101670.81;7401351;19;19954;-76
2023/08/13 04:32:27;;;;;;;7.38;2.25;;;;;;;15.54;81.46;101677.06;7401382;19;19941;-76
2023/08/13 04:34:56;;;;;;;6.93;2.25;;;;;;;15.54;81.24;101677.91;7401660;19;19946;-77
2023/08/13 04:37:25;;;;;;;12.02;2.58;;;;;;;15.56;81.54;101680.47;7400132;19;19915;-76
2023/08/13 04:39:53;;;;;;;6.75;2.03;;;;;;;15.58;81.62;101672.94;7400746;19;19923;-76
2023/08/13 04:42:22;;;;;;;9.00;2.00;;;;;;;15.58;81.66;101672.94;7401616;19;20352;-76
2023/08/13 04:44:51;;;;;;;12.07;2.42;;;;;;;15.57;81.36;101676.72;7401322;19;19923;-77
2023/08/13 04:47:20;;;;;;;11.07;2.20;;;;;;;15.54;81.75;101677.91;7401534;19;19922;-76
2023/08/13 04:49:51;;;;;;;8.15;2.40;;;;;;;15.55;81.92;101681.47;7401706;19;19927;-77
2023/08/13 04:52:19;;;;;;;11.45;2.78;;;;;;;15.55;81.46;101673.34;7402549;19;19930;-76
2023/08/13 04:54:48;;;;;;;6.45;2.28;;;;;;;15.56;81.91;101665.00;7401389;19;19919;-76
2023/08/13 04:57:17;;;;;;;7.90;1.85;;;;;;;15.57;81.75;101671.28;7401466;19;19918;-76
2023/08/13 04:59:45;;;;;;;5.10;2.10;;;;;;;15.58;81.67;101676.50;7401882;19;19930;-76
2023/08/13 05:02:14;;;;;;;6.55;2.00;;;;;;;15.61;81.52;101676.16;7401648;19;19962;-76
2023/08/13 05:04:43;;;;;;;12.52;2.60;;;;;;;15.62;81.57;101666.13;7401987;19;19934;-75
2023/08/13 05:07:14;;;;;;;7.97;2.10;;;;;;;15.63;82.31;101667.78;7401558;19;19922;-76
2023/08/13 05:09:42;;;;;;;6.80;2.25;;;;;;;15.63;81.93;101662.34;7401633;19;20359;-76
2023/08/13 05:12:11;;;;;;;11.05;2.50;;;;;;;15.64;82.16;101662.19;7401623;19;20634;-76
2023/08/13 05:14:40;;;;;;;10.55;2.28;;;;;;;15.66;81.96;101662.81;7401161;19;19923;-76
2023/08/13 05:17:19;;;;;;;6.45;1.92;;;;;;;15.66;82.60;101667.44;7399436;19;19918;-76
2023/08/13 05:19:47;;;;;;;9.32;2.10;;;;;;;15.70;81.82;101675.00;7400487;19;19915;-76
2023/08/13 05:22:19;;;;;;;7.97;2.30;;;;;;;15.73;82.18;101674.63;7400034;19;19922;-76
2023/08/13 05:24:49;;;;;;;8.98;2.42;;;;;;;15.78;81.92;101671.31;7403636;19;19921;-76
2023/08/13 05:27:19;;;;;;;7.45;2.65;;;;;;;15.83;82.15;101669.69;7399503;19;19923;-76
2023/08/13 05:29:47;;;;;;;8.07;2.50;;;;;;;15.91;81.72;101670.63;7399941;19;19918;-76
2023/08/13 05:32:16;;;;;;;9.00;2.60;;;;;;;15.97;81.36;101658.97;7400176;19;19923;-76
2023/08/13 05:34:46;;;;;;;8.52;2.33;;;;;;;16.02;81.46;101667.41;7399754;19;19918;-76
2023/08/13 05:37:14;;;;;;;11.27;2.25;;;;;;;16.06;81.17;101672.25;7398420;19;19950;-76
2023/08/13 05:39:46;;;;;;;7.47;2.17;;;;;;;16.09;81.99;101676.47;7399447;19;19946;-76
2023/08/13 05:42:14;;;;;;;8.85;2.72;;;;;;;16.13;81.08;101670.47;7400677;19;20225;-76
2023/08/13 05:44:44;;;;;;;7.43;2.50;;;;;;;16.16;81.02;101666.50;7399689;19;19943;-76
2023/08/13 05:47:12;;;;;;;8.18;2.38;;;;;;;16.21;80.78;101670.34;7399443;19;20344;-77
2023/08/13 05:49:41;;;;;;;8.23;2.40;;;;;;;16.29;81.10;101666.63;7399647;19;19910;-75
2023/08/13 05:52:09;;;;;;;11.70;3.08;;;;;;;16.35;80.71;101666.69;7400339;19;19938;-76
2023/08/13 05:54:38;;;;;;;9.05;2.50;;;;;;;16.43;80.24;101670.31;7399444;19;19918;-76
2023/08/13 05:57:09;;;;;;;10.65;2.20;;;;;;;16.50;79.91;101669.31;7400332;19;19918;-75
2023/08/13 05:59:38;;;;;;;7.95;2.58;;;;;;;16.57;80.16;101678.41;7399953;19;19919;-76
2023/08/13 06:02:07;;;;;;;10.70;2.80;;;;;;;16.65;79.66;101670.09;7400196;19;19914;-75
2023/08/13 06:04:36;;;;;;;8.32;2.13;;;;;;;16.73;79.50;101674.56;7400247;19;19929;-75
2023/08/13 06:07:06;;;;;;;8.25;2.58;;;;;;;16.82;79.48;101678.84;7401541;19;19923;-75
2023/08/13 06:09:35;;;;;;;6.90;2.72;;;;;;;16.89;79.16;101671.53;7403612;19;19919;-75
2023/08/13 06:12:03;;;;;;;8.48;2.60;;;;;;;16.95;79.52;101669.91;7401349;19;19934;-76
2023/08/13 06:14:34;;;;;;;8.77;2.63;;;;;;;16.99;79.23;101676.66;7400039;19;19934;-75
2023/08/13 06:17:03;;;;;;;6.40;2.53;;;;;;;17.03;78.89;101667.03;7400002;19;20340;-75
2023/08/13 06:19:32;;;;;;;8.55;2.35;;;;;;;17.04;78.86;101676.91;7399037;19;20255;-75
2023/08/13 06:22:00;;;;;;;5.80;2.20;;;;;;;17.05;78.93;101659.50;7399344;19;20454;-75
2023/08/13 06:24:29;;;;;;;9.77;3.10;;;;;;;17.05;79.17;101690.28;7401580;19;19923;-76
2023/08/13 06:26:57;;;;;;;5.95;2.17;;;;;;;17.03;79.00;101676.06;7398987;19;19921;-75
2023/08/13 06:29:26;;;;;;;8.68;2.75;;;;;;;17.00;79.56;101681.06;7401866;19;19919;-75
2023/08/13 06:31:57;;;;;;;8.43;2.30;;;;;;;16.97;79.76;101682.28;7405431;19;19923;-76
2023/08/13 06:34:26;;;;;;;9.85;2.92;;;;;;;16.95;79.79;101687.09;7405750;19;19950;-75
2023/08/13 06:36:55;;;;;;;7.93;2.30;;;;;;;16.96;79.69;101693.34;7403507;19;20336;-76
2023/08/13 06:39:24;;;;;;;8.77;2.10;;;;;;;16.97;79.47;101693.16;7405001;19;19940;-75
2023/08/13 06:41:52;;;;;;;11.55;2.70;;;;;;;16.98;79.47;101699.47;7403816;19;19990;-75
2023/08/13 06:44:22;;;;;;;8.75;2.22;;;;;;;17.01;79.52;101705.34;7405767;19;20260;-76
2023/08/13 06:46:52;;;;;;;11.00;2.55;;;;;;;17.05;79.93;101706.63;7405793;19;19943;-75
2023/08/13 06:49:23;;;;;;;9.68;2.95;;;;;;;17.08;80.00;101703.53;7403038;19;19932;-75
2023/08/13 06:51:52;;;;;;;7.40;2.50;;;;;;;17.11;79.60;101697.66;7405366;19;19923;-76
2023/08/13 06:54:21;;;;;;;5.55;2.72;;;;;;;17.15;79.85;101709.00;7404738;19;19945;-76
2023/08/13 06:56:50;;;;;;;5.13;2.20;;;;;;;17.19;79.60;101713.84;7404517;19;19918;-76
2023/08/13 06:59:18;;;;;;;9.55;3.03;;;;;;;17.25;79.06;101704.03;7404249;19;19923;-76
2023/08/13 07:01:47;;;;;;;8.80;2.60;;;;;;;17.30;78.75;101687.91;7405667;19;19923;-76
2023/08/13 07:04:15;;;;;;;7.63;2.67;;;;;;;17.37;79.13;101705.16;7405185;19;19910;-76
2023/08/13 07:06:49;;;;;;;6.88;3.25;;;;;;;17.47;79.00;101694.75;7405335;19;19922;-76
2023/08/13 07:09:18;;;;;;;9.82;2.95;;;;;;;17.52;78.26;101694.09;7403019;19;19923;-76
2023/08/13 07:11:47;;;;;;;8.55;2.53;;;;;;;17.54;78.33;101687.44;7405404;19;20283;-76
2023/08/13 07:14:15;;;;;;;6.20;2.22;;;;;;;17.55;78.95;101688.28;7404885;19;20538;-76
2023/08/13 07:16:44;;;;;;;9.05;3.28;;;;;;;17.55;78.41;101707.34;7403667;19;19918;-76
2023/08/13 07:19:13;;;;;;;9.45;2.65;;;;;;;17.53;78.78;101701.25;7403889;19;19950;-76
2023/08/13 07:21:41;;;;;;;11.63;2.30;;;;;;;17.49;78.56;101710.88;7403540;19;19949;-76
2023/08/13 07:24:12;;;;;;;9.65;2.65;;;;;;;17.43;78.65;101711.69;7405780;19;19915;-76
2023/08/13 07:26:41;;;;;;;11.93;3.40;;;;;;;17.43;78.42;101701.59;7403765;19;19959;-76
2023/08/13 07:29:10;;;;;;;9.55;2.72;;;;;;;17.45;78.51;101713.16;7401938;19;20295;-76
2023/08/13 07:31:39;;;;;;;13.45;2.95;;;;;;;17.48;78.63;101714.63;7404121;19;19925;-76
2023/08/13 07:34:07;;;;;;;8.23;2.70;;;;;;;17.53;78.61;101709.41;7403919;19;19922;-76
2023/08/13 07:36:36;;;;;;;11.00;2.90;;;;;;;17.59;78.75;101712.22;7401466;19;19942;-76
2023/08/13 07:39:05;;;;;;;8.80;2.40;;;;;;;17.67;78.12;101714.78;7403125;19;19950;-76
2023/08/13 07:41:36;;;;;;;8.25;2.63;;;;;;;17.74;78.28;101709.34;7402339;19;20282;-76
2023/08/13 07:44:05;;;;;;;8.38;1.88;;;;;;;17.81;78.52;101704.75;7402853;19;20261;-76
2023/08/13 07:46:34;;;;;;;13.05;2.83;;;;;;;17.89;78.53;101710.03;7402388;19;19947;-76
2023/08/13 07:49:03;;;;;;;6.57;2.10;;;;;;;17.97;78.04;101706.28;7400844;19;19915;-76
2023/08/13 07:51:32;;;;;;;8.70;2.75;;;;;;;18.02;78.04;101706.50;7402693;19;19919;-76
2023/08/13 07:54:00;;;;;;;9.77;2.90;;;;;;;18.02;78.13;101712.81;7402828;19;19942;-76
2023/08/13 07:56:29;;;;;;;7.65;2.70;;;;;;;18.05;78.28;101706.94;7402332;19;19914;-76
2023/08/13 07:59:00;;;;;;;10.38;3.38;;;;;;;18.10;78.19;101718.06;7402350;19;19933;-76
2023/08/13 08:01:29;;;;;;;11.77;3.30;;;;;;;18.16;77.15;101710.13;7402581;19;19922;-76
2023/08/13 08:03:57;;;;;;;7.78;2.47;;;;;;;18.21;77.54;101713.06;7402584;19;19953;-76
2023/08/13 08:06:26;;;;;;;8.18;2.40;;;;;;;18.34;77.48;101710.34;7402470;19;19922;-77
2023/08/13 08:08:55;;;;;;;8.02;2.33;;;;;;;18.45;76.16;101702.41;7401470;19;20628;-78
2023/08/13 08:11:23;;;;;;;8.55;2.10;;;;;;;18.54;76.43;101690.25;7402652;19;19919;-76
2023/08/13 08:13:52;;;;;;;8.40;2.08;;;;;;;18.62;75.54;101708.31;7402288;19;19974;-77
2023/08/13 08:16:23;;;;;;;11.73;2.88;;;;;;;18.68;75.17;101710.19;7402685;19;19951;-76
2023/08/13 08:18:52;;;;;;;6.75;2.42;;;;;;;18.71;75.85;101707.06;7402424;19;20563;-75
2023/08/13 08:21:20;;;;;;;9.35;2.03;;;;;;;18.74;75.58;101706.63;7401580;19;19914;-76
2023/08/13 08:23:49;;;;;;;9.07;2.50;;;;;;;18.81;75.97;101701.19;7404786;19;19923;-76
2023/08/13 08:26:18;;;;;;;8.73;2.20;;;;;;;18.87;74.83;101712.09;7401336;19;19922;-76
2023/08/13 08:28:46;;;;;;;6.90;2.45;;;;;;;18.92;74.19;101698.66;7399873;19;20041;-76
2023/08/13 08:31:15;;;;;;;7.30;2.05;;;;;;;19.04;74.33;101701.56;7402971;19;19942;-76
2023/08/13 08:33:46;;;;;;;6.93;2.22;;;;;;;19.13;73.07;101699.44;7400919;19;19914;-76
2023/08/13 08:36:15;;;;;;;4.28;1.60;;;;;;;19.22;73.10;101706.38;7400005;19;19942;-76
2023/08/13 08:38:43;;;;;;;5.13;1.85;;;;;;;19.33;72.29;101709.25;7401009;19;19927;-75
2023/08/13 08:41:14;;;;;;;4.82;1.90;;;;;;;19.45;71.83;101709.50;7398665;19;20255;-76
2023/08/13 08:43:44;;;;;;;9.65;2.20;;;;;;;19.54;72.47;101699.16;7400702;19;19942;-76
2023/08/13 08:46:15;;;;;;;7.43;2.00;;;;;;;19.65;71.76;101710.25;7400760;19;19925;-75
2023/08/13 08:48:47;;;;;;;6.70;1.83;;;;;;;19.78;71.00;101712.09;7400115;19;20002;-76
2023/08/13 08:51:16;;;;;;;8.48;1.85;;;;;;;19.79;70.12;101703.69;7399451;19;19918;-75
2023/08/13 08:53:47;;;;;;;5.25;1.38;;;;;;;19.74;70.42;101719.06;7401452;19;19914;-76
2023/08/13 08:56:15;;;;;;;6.10;1.92;;;;;;;19.72;69.54;101712.94;7400908;19;19922;-76
2023/08/13 08:58:44;;;;;;;8.77;1.77;;;;;;;19.77;69.93;101699.47;7400948;19;19915;-76
2023/08/13 09:01:13;;;;;;;6.60;1.67;;;;;;;19.80;69.83;101707.25;7400715;19;19946;-76
2023/08/13 09:03:41;;;;;;;11.93;2.35;;;;;;;19.82;69.74;101710.59;7400567;19;19938;-76
2023/08/13 09:06:12;;;;;;;6.85;2.00;;;;;;;19.92;69.58;101714.56;7400424;19;19918;-76
2023/08/13 09:08:41;;;;;;;5.85;1.60;;;;;;;19.94;69.51;101709.69;7400205;19;19919;-76
2023/08/13 09:11:11;;;;;;;7.78;2.33;;;;;;;19.99;69.66;101703.56;7402365;19;20343;-77
2023/08/13 09:13:49;;;;;;;7.40;2.42;;;;;;;19.94;69.02;101704.22;7401624;19;19911;-76
2023/08/13 09:16:19;;;;;;;9.90;2.25;;;;;;;20.10;69.77;101702.06;7401247;19;19919;-76
2023/08/13 09:18:48;;;;;;;7.03;1.83;;;;;;;20.12;70.01;101700.75;7403806;19;19923;-76
2023/08/13 09:21:19;;;;;;;6.68;2.13;;;;;;;20.21;69.84;101704.09;7401927;19;19925;-77
2023/08/13 09:23:50;;;;;;;6.30;1.75;;;;;;;20.24;69.06;101706.38;7404715;19;20268;-76
2023/08/13 09:26:20;;;;;;;5.60;1.73;;;;;;;20.30;68.09;101711.84;7401530;19;19942;-76
2023/08/13 09:28:48;;;;;;;4.72;1.35;;;;;;;20.28;68.52;101704.88;7400609;19;19910;-76
2023/08/13 09:31:17;;;;;;;7.80;2.20;;;;;;;20.28;68.62;101697.50;7400042;19;19930;-76
2023/08/13 09:33:48;;;;;;;6.93;1.83;;;;;;;20.37;67.09;101700.84;7400039;19;19915;-78
2023/08/13 09:36:19;;;;;;;4.60;1.55;;;;;;;20.46;66.54;101695.94;7399803;19;19915;-77
2023/08/13 09:38:48;;;;;;;6.65;1.35;;;;;;;20.50;67.92;101700.75;7399951;19;19918;-77
2023/08/13 09:41:17;;;;;;;3.83;1.00;;;;;;;20.65;65.38;101705.91;7400080;19;19915;-76
2023/08/13 09:43:47;;;;;;;4.40;1.42;;;;;;;20.61;66.26;101701.94;7399344;19;19915;-76
2023/08/13 09:46:20;;;;;;;4.53;1.52;;;;;;;20.70;65.47;101704.19;7400374;19;20337;-76
2023/08/13 09:48:49;;;;;;;4.95;1.60;;;;;;;20.87;65.50;101692.66;7399190;19;19919;-76
2023/08/13 09:51:24;;;;;;;6.28;1.65;;;;;;;21.11;63.02;101694.50;7400399;19;19929;-77
2023/08/13 09:54:00;;;;;;;2.65;1.42;;;;;;;21.18;63.10;101695.34;7400554;19;20268;-75
2023/08/13 09:56:32;;;;;;;3.55;1.05;;;;;;;21.27;63.57;101707.66;7400681;19;19922;-76
2023/08/13 09:59:02;;;;;;;1.65;0.95;;;;;;;21.21;63.00;101697.63;7399953;19;20666;-77
2023/08/13 10:01:31;;;;;;;5.38;1.52;;;;;;;21.15;63.10;101693.03;7399164;19;19950;-77
2023/08/13 10:04:00;;;;;;;8.32;2.05;;;;;;;21.10;62.85;101698.31;7403755;19;20308;-76
2023/08/13 10:06:32;;;;;;;10.40;1.58;;;;;;;21.12;62.70;101693.47;7405208;19;20035;-76
2023/08/13 10:09:01;;;;;;;4.80;1.23;;;;;;;21.33;63.16;101686.72;7404904;19;19922;-75
2023/08/13 10:11:30;;;;;;;4.75;1.90;;;;;;;21.45;63.23;101701.34;7405528;19;20284;-76
2023/08/13 10:13:59;;;;;;;4.53;1.83;;;;;;;21.44;63.33;101683.25;7405370;19;19914;-77
2023/08/13 10:16:28;;;;;;;3.80;1.40;;;;;;;21.51;63.15;101690.31;7405955;19;19919;-76
2023/08/13 10:19:00;;;;;;;6.00;1.90;;;;;;;21.46;62.78;101681.94;7405429;19;19928;-77
2023/08/13 10:21:38;;;;;;;3.55;1.30;;;;;;;21.51;61.68;101681.25;7405423;19;19924;-76
2023/08/13 10:24:11;;;;;;;5.63;1.40;;;;;;;21.60;62.39;101682.63;7410305;19;19983;-76
2023/08/13 10:26:43;;;;;;;6.90;1.70;;;;;;;21.67;62.44;101675.13;7406461;19;19926;-76
2023/08/13 10:29:18;;;;;;;7.80;1.30;;;;;;;21.77;61.10;101683.66;7404244;19;19986;-76
2023/08/13 10:31:49;;;;;;;6.95;2.30;;;;;;;21.98;61.78;101680.44;7405771;19;19915;-76
2023/08/13 10:34:19;;;;;;;3.65;1.52;;;;;;;22.07;61.03;101683.69;7405042;19;19919;-76
2023/08/13 10:36:53;;;;;;;5.10;1.65;;;;;;;22.02;60.98;101684.41;7402941;19;19939;-77
2023/08/13 10:39:35;;;;;;;3.38;1.13;;;;;;;21.93;61.29;101677.56;7404312;19;19921;-76
2023/08/13 10:42:06;;;;;;;4.10;1.10;;;;;;;21.87;61.30;101678.47;7405625;19;20336;-77
2023/08/13 10:44:42;;;;;;;5.18;1.42;;;;;;;21.81;62.13;101673.06;7404008;19;19934;-76
2023/08/13 10:47:10;;;;;;;4.35;1.40;;;;;;;21.94;62.19;101681.97;7406298;19;19946;-76
2023/08/13 10:49:43;;;;;;;4.47;1.08;;;;;;;21.84;62.28;101681.66;7404026;19;20280;-76
2023/08/13 10:52:16;;;;;;;5.55;1.23;;;;;;;21.68;61.73;101683.13;7404735;19;19919;-76
2023/08/13 10:54:45;;;;;;;7.22;1.20;;;;;;;21.58;61.98;101684.72;7403331;19;19922;-76
2023/08/13 10:57:14;;;;;;;3.60;1.13;;;;;;;21.51;62.95;101684.00;7404430;19;19941;-76
2023/08/13 10:59:43;;;;;;;4.93;1.88;;;;;;;21.50;63.43;101683.16;7404735;19;19942;-76
2023/08/13 11:02:11;;;;;;;4.30;0.93;;;;;;;21.69;62.45;101681.25;7404598;19;20606;-76
2023/08/13 11:04:42;;;;;;;3.15;1.08;;;;;;;21.72;62.70;101681.59;7404450;19;19915;-77
2023/08/13 11:07:12;;;;;;;3.80;0.88;;;;;;;21.97;61.81;101686.16;7405890;19;19915;-77
2023/08/13 11:09:44;;;;;;;4.57;1.10;;;;;;;22.17;61.02;101698.53;7403561;19;19914;-76
2023/08/13 11:12:13;;;;;;;4.80;1.35;;;;;;;22.22;60.54;101675.03;7404590;19;19978;-76
2023/08/13 11:14:43;;;;;;;1.20;0.70;;;;;;;22.19;59.85;101670.84;7403278;19;19919;-77
2023/08/13 11:17:12;;;;;;;2.03;1.08;;;;;;;22.49;60.04;101679.88;7404989;19;19914;-77
2023/08/13 11:19:41;;;;;;;2.58;1.42;;;;;;;22.65;58.33;101681.09;7405216;19;19942;-77
2023/08/13 11:22:10;;;;;;;3.58;1.10;;;;;;;22.65;58.33;101683.84;7406300;19;19918;-77
2023/08/13 11:24:40;;;;;;;2.88;0.80;;;;;;;22.51;59.25;101680.50;7403472;19;19952;-76
2023/08/13 11:27:11;;;;;;;2.70;0.88;;;;;;;22.34;58.55;101678.66;7404564;19;19923;-76
2023/08/13 11:29:40;;;;;;;3.92;1.10;;;;;;;22.17;58.73;101684.81;7403660;19;19915;-76
2023/08/13 11:32:09;;;;;;;2.60;0.85;;;;;;;22.12;59.32;101686.59;7403975;19;19939;-76
2023/08/13 11:34:37;;;;;;;2.80;0.80;;;;;;;22.16;59.90;101682.31;7403839;19;20260;-76